Time;durP1;ratioP1;P1;durP2;ratioP2;P2;SDS_P1;SDS_P2;PMS_P1;PMS_P2;Temp;Humidity;BMP_temperature;BMP_pressure;BME280_temperature;BME280_humidity;BME280_pressure;Samples;Min_cycle;Max_cycle;Signal;HPM_P1;HPM_P2
2022/07/02 00:00:03;;;;;;;18.85;11.60;;;;;;;13.41;81.98;102058.63;5036604;28;20029;-60
2022/07/02 00:02:32;;;;;;;19.88;12.32;;;;;;;13.37;82.26;102060.28;5036527;28;20030;-59
2022/07/02 00:05:04;;;;;;;18.80;12.00;;;;;;;13.33;82.43;102054.50;5036238;28;20028;-59
2022/07/02 00:07:30;;;;;;;19.95;11.90;;;;;;;13.28;82.14;102054.53;5036281;28;20120;-60
2022/07/02 00:09:57;;;;;;;20.23;11.73;;;;;;;13.17;82.45;102048.28;5036698;28;20033;-59
2022/07/02 00:12:24;;;;;;;20.13;12.25;;;;;;;13.19;83.68;102059.94;5034816;28;20150;-59
2022/07/02 00:14:54;;;;;;;19.45;12.45;;;;;;;13.16;83.35;102059.69;5036484;28;20033;-58
2022/07/02 00:17:21;;;;;;;18.17;11.90;;;;;;;13.10;83.81;102059.75;5036280;28;20176;-58
2022/07/02 00:19:46;;;;;;;19.42;12.40;;;;;;;13.11;83.21;102060.59;5036266;28;20465;-58
2022/07/02 00:22:14;;;;;;;19.55;12.20;;;;;;;13.05;83.74;102056.19;5036576;28;20087;-60
2022/07/02 00:24:41;;;;;;;18.77;12.18;;;;;;;13.04;83.15;102062.84;5036312;28;20102;-59
2022/07/02 00:27:09;;;;;;;19.23;12.05;;;;;;;12.99;83.51;102063.72;5036411;28;20072;-60
2022/07/02 00:30:02;;;;;;;20.73;13.45;;;;;;;13.00;82.62;102068.16;5036248;28;20049;-59
2022/07/02 00:32:29;;;;;;;20.40;12.75;;;;;;;12.96;83.59;102061.56;5031842;28;20462;-59
2022/07/02 00:34:59;;;;;;;21.00;12.90;;;;;;;12.90;84.71;102057.16;5036378;28;20207;-59
2022/07/02 00:37:26;;;;;;;20.77;13.32;;;;;;;12.92;83.96;102066.03;5035894;28;20112;-58
2022/07/02 00:39:51;;;;;;;19.17;12.45;;;;;;;12.89;84.09;102059.13;5036248;28;20045;-59
2022/07/02 00:42:18;;;;;;;20.92;12.68;;;;;;;12.82;84.17;102064.19;5036116;28;20036;-57
2022/07/02 00:44:45;;;;;;;18.30;11.73;;;;;;;12.82;84.00;102060.56;5035950;28;20094;-59
2022/07/02 00:47:12;;;;;;;19.48;12.35;;;;;;;12.76;85.15;102063.41;5035861;28;20029;-57
2022/07/02 00:49:38;;;;;;;19.98;12.80;;;;;;;12.75;85.52;102061.75;5035699;28;20132;-58
2022/07/02 00:52:04;;;;;;;20.02;12.95;;;;;;;12.73;84.87;102068.72;5034555;28;20052;-59
2022/07/02 00:54:30;;;;;;;19.98;13.13;;;;;;;12.69;85.55;102059.31;5035856;28;20040;-60
2022/07/02 00:56:55;;;;;;;19.63;12.95;;;;;;;12.67;85.05;102053.19;5033843;28;20026;-59
2022/07/02 00:59:22;;;;;;;19.90;12.88;;;;;;;12.60;85.52;102051.59;5032684;28;20461;-59
2022/07/02 01:01:47;;;;;;;20.52;12.10;;;;;;;12.55;85.74;102054.44;5032707;28;20049;-58
2022/07/02 01:04:15;;;;;;;19.15;12.05;;;;;;;12.53;85.80;102059.44;5032497;28;20098;-58
2022/07/02 01:06:41;;;;;;;18.25;11.88;;;;;;;12.46;86.35;102059.75;5032531;28;20114;-57
2022/07/02 01:11:55;;;;;;;17.80;11.93;;;;;;;12.36;87.00;102034.03;5032928;28;20096;-57
2022/07/02 01:14:20;;;;;;;20.90;12.77;;;;;;;12.32;87.77;102040.16;5032669;28;20025;-59
2022/07/02 01:19:20;;;;;;;19.27;13.05;;;;;;;12.24;87.63;102039.94;5031435;28;20049;-52
2022/07/02 01:22:07;;;;;;;21.50;12.57;;;;;;;12.25;87.03;102048.00;5033572;28;20032;-53
2022/07/02 01:24:32;;;;;;;19.90;12.93;;;;;;;12.22;87.67;102039.41;5031588;28;20123;-53
2022/07/02 01:26:57;;;;;;;18.98;12.75;;;;;;;12.17;87.71;102040.28;5032784;28;20029;-46
2022/07/02 01:29:22;;;;;;;20.77;13.48;;;;;;;12.17;87.89;102045.84;5032590;28;20021;-51
2022/07/02 01:31:48;;;;;;;19.10;13.32;;;;;;;12.14;87.76;102049.16;5033106;28;20116;-50
2022/07/02 01:34:13;;;;;;;20.65;13.85;;;;;;;12.16;88.07;102052.50;5032896;28;20036;-51
2022/07/02 01:36:39;;;;;;;20.65;13.35;;;;;;;12.15;88.18;102048.06;5033188;28;20447;-52
2022/07/02 01:39:04;;;;;;;19.10;13.02;;;;;;;12.14;88.16;102044.44;5033249;28;20037;-52
2022/07/02 01:41:38;;;;;;;20.95;13.25;;;;;;;12.16;88.31;102044.16;5032913;28;20040;-52
2022/07/02 01:44:04;;;;;;;20.17;13.80;;;;;;;12.19;88.09;102049.13;5032863;28;20171;-52
2022/07/02 01:46:29;;;;;;;20.02;12.63;;;;;;;12.20;87.88;102052.75;5032835;28;20029;-50
2022/07/02 01:48:55;;;;;;;19.25;12.68;;;;;;;12.21;88.30;102052.44;5032298;28;20071;-51
2022/07/02 01:51:20;;;;;;;19.63;13.05;;;;;;;12.20;87.64;102052.75;5014561;28;20110;-51
2022/07/02 01:53:45;;;;;;;19.60;12.20;;;;;;;12.19;88.16;102048.31;5032674;28;20048;-53
2022/07/02 01:56:10;;;;;;;20.10;13.07;;;;;;;12.15;87.97;102048.88;5032962;28;20373;-51
2022/07/02 01:58:36;;;;;;;19.80;12.73;;;;;;;12.13;88.19;102044.72;5014374;28;20064;-50
2022/07/02 02:01:01;;;;;;;20.55;12.55;;;;;;;12.13;87.77;102041.97;5032259;28;20021;-49
2022/07/02 02:03:26;;;;;;;19.88;13.13;;;;;;;12.10;88.15;102042.53;5031182;28;20025;-52
2022/07/02 02:05:53;;;;;;;19.27;12.45;;;;;;;12.08;88.00;102042.00;5032332;28;20372;-52
2022/07/02 02:08:18;;;;;;;20.70;13.30;;;;;;;12.09;88.29;102038.13;5031157;28;20100;-52
2022/07/02 02:10:43;;;;;;;19.55;12.32;;;;;;;12.08;88.70;102042.00;5031840;28;20025;-52
2022/07/02 02:13:08;;;;;;;20.65;12.98;;;;;;;12.06;88.23;102041.47;5032153;28;20033;-53
2022/07/02 02:15:34;;;;;;;20.45;12.60;;;;;;;12.06;88.75;102038.69;5031853;28;20029;-52
2022/07/02 02:17:59;;;;;;;20.38;12.05;;;;;;;12.04;88.71;102043.69;5032069;28;20057;-48
2022/07/02 02:20:24;;;;;;;19.65;12.52;;;;;;;12.01;89.19;102040.34;5031755;28;20040;-51
2022/07/02 02:22:50;;;;;;;21.30;12.52;;;;;;;12.00;89.29;102044.25;5031807;28;20029;-49
2022/07/02 02:25:15;;;;;;;20.00;12.43;;;;;;;11.96;89.69;102039.53;5032134;28;20021;-49
2022/07/02 02:27:40;;;;;;;22.05;13.50;;;;;;;11.95;89.30;102044.25;5032395;28;20440;-49
2022/07/02 02:30:06;;;;;;;21.45;12.98;;;;;;;11.92;89.96;102047.59;5032071;28;20108;-49
2022/07/02 02:32:31;;;;;;;20.88;13.23;;;;;;;11.90;89.79;102046.22;5032193;28;20117;-49
2022/07/02 02:34:57;;;;;;;20.00;12.75;;;;;;;11.87;89.52;102044.88;5032473;28;20029;-49
2022/07/02 02:37:22;;;;;;;20.95;13.60;;;;;;;11.86;89.86;102041.25;5032049;28;20044;-49
2022/07/02 02:39:47;;;;;;;22.35;13.60;;;;;;;11.86;89.43;102043.19;5031817;28;20454;-52
2022/07/02 02:42:12;;;;;;;19.88;12.73;;;;;;;11.89;89.51;102042.63;5031514;28;20025;-52
2022/07/02 02:44:38;;;;;;;21.08;13.20;;;;;;;11.86;89.77;102048.75;5031254;28;20021;-53
2022/07/02 02:47:03;;;;;;;21.95;13.18;;;;;;;11.86;89.80;102044.00;5031220;28;20095;-49
2022/07/02 02:49:28;;;;;;;20.42;12.48;;;;;;;11.88;89.49;102038.22;5031167;28;20082;-52
2022/07/02 02:51:54;;;;;;;19.40;12.63;;;;;;;11.91;90.17;102045.13;5031348;28;20075;-52
2022/07/02 02:54:19;;;;;;;22.50;13.85;;;;;;;11.94;90.06;102042.59;5031641;28;20465;-52
2022/07/02 02:56:44;;;;;;;22.65;12.45;;;;;;;11.95;89.83;102047.03;5031189;28;20021;-53
2022/07/02 02:59:10;;;;;;;21.23;12.68;;;;;;;11.93;89.47;102051.22;5031407;28;20022;-52
2022/07/02 03:01:35;;;;;;;21.88;13.00;;;;;;;12.00;89.65;102057.28;5031450;28;20091;-54
2022/07/02 03:04:00;;;;;;;20.83;12.98;;;;;;;12.04;89.77;102058.41;5031298;28;20029;-53
2022/07/02 03:06:25;;;;;;;20.40;12.68;;;;;;;12.10;89.37;102054.47;5031550;28;20034;-50
2022/07/02 03:08:51;;;;;;;19.67;12.60;;;;;;;12.11;89.15;102050.56;5030767;28;20408;-52
2022/07/02 03:11:16;;;;;;;21.92;12.80;;;;;;;12.16;89.08;102056.06;5030718;28;20052;-53
2022/07/02 03:13:41;;;;;;;20.80;12.68;;;;;;;12.21;89.09;102058.00;5030283;28;20139;-53
2022/07/02 03:16:07;;;;;;;20.27;12.68;;;;;;;12.25;88.50;102055.47;5030217;28;20207;-50
2022/07/02 03:18:32;;;;;;;20.15;12.27;;;;;;;12.24;88.03;102054.66;5030155;28;20075;-50
2022/07/02 03:20:57;;;;;;;20.08;13.02;;;;;;;12.24;88.13;102056.56;5029794;28;20050;-51
2022/07/02 03:23:23;;;;;;;20.48;12.45;;;;;;;12.21;88.08;102055.22;5030254;28;20462;-51
2022/07/02 03:25:48;;;;;;;19.35;12.90;;;;;;;12.17;88.32;102068.84;5030517;28;20033;-53
2022/07/02 03:28:13;;;;;;;21.20;12.80;;;;;;;12.11;88.12;102072.78;5030555;28;20033;-53
2022/07/02 03:30:39;;;;;;;22.63;13.10;;;;;;;12.07;88.05;102080.00;5031015;28;20037;-55
2022/07/02 03:33:04;;;;;;;19.58;13.27;;;;;;;12.02;87.91;102080.84;5030291;28;20044;-52
2022/07/02 03:35:29;;;;;;;20.65;12.77;;;;;;;12.01;88.34;102081.16;5030690;28;20065;-53
2022/07/02 03:37:55;;;;;;;20.02;12.80;;;;;;;11.99;88.22;102086.13;5030799;28;20053;-53
2022/07/02 03:40:20;;;;;;;18.83;12.65;;;;;;;11.97;88.47;102088.34;5030863;28;20178;-50
2022/07/02 03:42:45;;;;;;;21.58;12.43;;;;;;;11.99;88.64;102083.38;5030451;28;20465;-51
2022/07/02 03:45:11;;;;;;;20.50;12.73;;;;;;;12.05;88.28;102084.19;5030518;28;20441;-49
2022/07/02 03:47:36;;;;;;;23.23;12.75;;;;;;;12.07;88.73;102079.19;5030823;28;20034;-49
2022/07/02 03:50:02;;;;;;;19.27;12.30;;;;;;;12.19;88.10;102076.88;5030868;28;20041;-49
2022/07/02 03:52:27;;;;;;;19.73;12.02;;;;;;;12.40;87.80;102082.28;5030554;28;20179;-48
2022/07/02 03:54:53;;;;;;;20.02;12.07;;;;;;;12.60;86.69;102082.13;5030215;28;20513;-54
2022/07/02 03:57:18;;;;;;;18.20;11.18;;;;;;;12.72;86.09;102080.94;5030450;28;20026;-52
2022/07/02 03:59:44;;;;;;;20.05;11.73;;;;;;;12.76;85.25;102084.78;5030245;28;20029;-53
2022/07/02 04:02:09;;;;;;;19.55;11.80;;;;;;;12.68;85.48;102080.69;5030461;28;20053;-52
2022/07/02 04:04:34;;;;;;;19.98;11.60;;;;;;;12.60;85.88;102084.91;5030160;28;20135;-53
2022/07/02 04:06:59;;;;;;;18.83;11.25;;;;;;;12.55;85.93;102086.91;5030473;28;20065;-49
2022/07/02 04:09:25;;;;;;;19.48;11.70;;;;;;;12.48;86.24;102088.06;5030424;28;20041;-52
2022/07/02 04:11:50;;;;;;;19.85;11.20;;;;;;;12.48;85.89;102078.88;5030313;28;20099;-52
2022/07/02 04:14:15;;;;;;;20.15;11.70;;;;;;;12.46;86.00;102083.94;5012377;28;20032;-53
2022/07/02 04:16:41;;;;;;;19.88;11.57;;;;;;;12.46;86.25;102092.25;5012363;28;20037;-49
2022/07/02 04:19:06;;;;;;;19.98;11.57;;;;;;;12.47;86.47;102091.94;5030415;28;20042;-48
2022/07/02 04:21:31;;;;;;;19.75;11.65;;;;;;;12.50;86.64;102089.72;5030360;28;20025;-48
2022/07/02 04:23:57;;;;;;;21.45;11.90;;;;;;;12.55;86.51;102090.50;5030471;28;20041;-51
2022/07/02 04:26:22;;;;;;;18.80;11.15;;;;;;;12.61;86.02;102089.34;5029650;28;20445;-52
2022/07/02 04:28:47;;;;;;;20.38;11.65;;;;;;;12.61;85.84;102088.53;5029843;28;20026;-49
2022/07/02 04:31:12;;;;;;;19.88;11.50;;;;;;;12.62;85.70;102092.94;5030692;28;20396;-52
2022/07/02 04:33:38;;;;;;;19.83;11.25;;;;;;;12.61;85.83;102088.53;5033782;28;20021;-50
2022/07/02 04:36:03;;;;;;;19.98;10.98;;;;;;;12.59;85.52;102091.56;5033872;28;20389;-49
2022/07/02 04:38:28;;;;;;;20.35;10.73;;;;;;;12.61;85.39;102094.91;5034152;28;20029;-49
2022/07/02 04:40:53;;;;;;;19.08;10.77;;;;;;;12.63;85.83;102086.28;5033956;28;20130;-49
2022/07/02 04:43:19;;;;;;;19.85;11.50;;;;;;;12.71;85.81;102095.94;5032997;28;20041;-49
2022/07/02 04:45:44;;;;;;;20.80;11.38;;;;;;;12.78;85.30;102099.19;5033547;28;20346;-51
2022/07/02 04:48:10;;;;;;;20.30;11.52;;;;;;;12.90;85.21;102096.03;5033259;28;20097;-49
2022/07/02 04:50:35;;;;;;;20.42;12.00;;;;;;;13.00;85.05;102095.94;5033427;28;20053;-53
2022/07/02 04:53:00;;;;;;;19.15;11.70;;;;;;;13.14;84.42;102096.09;5015240;28;20057;-52
2022/07/02 04:55:25;;;;;;;21.27;11.73;;;;;;;13.25;84.49;102094.88;5033561;28;20091;-51
2022/07/02 04:57:51;;;;;;;19.92;11.75;;;;;;;13.36;83.59;102092.00;5033594;28;20112;-53
2022/07/02 05:00:16;;;;;;;18.30;11.43;;;;;;;13.44;83.26;102090.56;5033157;28;20017;-53
2022/07/02 05:02:42;;;;;;;20.58;11.57;;;;;;;13.54;83.04;102093.22;5033590;28;20083;-53
2022/07/02 05:05:07;;;;;;;22.92;11.93;;;;;;;13.66;82.24;102090.84;5015783;28;20071;-52
2022/07/02 05:07:32;;;;;;;20.85;11.98;;;;;;;13.82;81.73;102094.25;5033402;28;20021;-53
2022/07/02 05:09:58;;;;;;;18.33;11.30;;;;;;;13.89;81.99;102086.38;5033047;28;20037;-53
2022/07/02 05:12:24;;;;;;;20.13;11.73;;;;;;;14.03;80.61;102097.59;5033264;28;20033;-53
2022/07/02 05:14:50;;;;;;;21.52;11.60;;;;;;;14.15;80.58;102097.16;5032521;28;20029;-53
2022/07/02 05:17:15;;;;;;;20.23;11.75;;;;;;;14.24;79.90;102090.91;5033013;28;20408;-53
2022/07/02 05:19:41;;;;;;;19.52;11.20;;;;;;;14.34;79.24;102088.00;5033570;28;20438;-53
2022/07/02 05:22:06;;;;;;;19.52;11.13;;;;;;;14.35;78.92;102087.69;5033739;28;20049;-54
2022/07/02 05:24:31;;;;;;;22.05;11.10;;;;;;;14.41;78.58;102093.16;5033409;28;20036;-51
2022/07/02 05:26:57;;;;;;;20.85;11.60;;;;;;;14.47;77.98;102092.78;5032775;28;20372;-52
2022/07/02 05:29:22;;;;;;;20.05;11.68;;;;;;;14.54;78.33;102091.59;5031697;28;20109;-52
2022/07/02 05:31:47;;;;;;;19.55;11.63;;;;;;;14.61;77.58;102084.47;5032991;28;20025;-53
2022/07/02 05:34:12;;;;;;;19.70;12.02;;;;;;;14.68;77.51;102086.09;5015125;28;20049;-52
2022/07/02 05:36:38;;;;;;;19.75;11.43;;;;;;;14.72;77.13;102090.75;5033035;28;20108;-53
2022/07/02 05:39:03;;;;;;;20.17;11.80;;;;;;;14.73;76.76;102092.41;5032611;28;20021;-51
2022/07/02 05:41:29;;;;;;;20.50;11.48;;;;;;;14.79;76.70;102107.06;5032916;28;20025;-53
2022/07/02 05:43:54;;;;;;;18.50;11.60;;;;;;;14.83;77.58;102099.75;5014315;28;20445;-54
2022/07/02 05:46:19;;;;;;;18.95;11.98;;;;;;;14.94;77.01;102100.41;5032320;28;20112;-54
2022/07/02 05:48:44;;;;;;;18.05;11.32;;;;;;;15.00;75.94;102103.94;5032547;28;20029;-52
2022/07/02 05:51:10;;;;;;;19.45;11.77;;;;;;;14.97;76.17;102105.38;5032487;28;20420;-53
2022/07/02 05:53:35;;;;;;;19.02;11.05;;;;;;;15.00;75.59;102103.94;5032666;28;20041;-53
2022/07/02 05:56:00;;;;;;;20.02;11.52;;;;;;;14.98;76.04;102102.28;5032469;28;20048;-53
2022/07/02 05:58:26;;;;;;;20.70;11.32;;;;;;;15.00;75.80;102109.50;5032061;28;20030;-53
2022/07/02 06:00:51;;;;;;;21.45;11.48;;;;;;;15.07;75.98;102116.34;5032319;28;20452;-52
2022/07/02 06:03:16;;;;;;;20.15;11.68;;;;;;;15.17;77.11;102115.31;5031535;28;20407;-53
2022/07/02 06:08:25;;;;;;;;;;;;;;;15.36;75.86;102109.69;5032937;28;20060;-53
2022/07/02 06:10:52;;;;;;;18.88;11.52;;;;;;;15.38;73.82;102103.78;5032185;28;19913;-53
2022/07/02 06:13:18;;;;;;;19.98;11.70;;;;;;;15.44;74.11;102108.97;5031911;28;20125;-53
2022/07/02 06:15:43;;;;;;;19.75;10.90;;;;;;;15.52;73.39;102103.81;5032347;28;20461;-53
2022/07/02 06:18:09;;;;;;;19.33;10.70;;;;;;;15.59;72.24;102101.41;5031926;28;20367;-53
2022/07/02 06:20:35;;;;;;;18.80;10.93;;;;;;;15.67;71.33;102100.72;5032214;28;20025;-53
2022/07/02 06:23:00;;;;;;;18.88;10.70;;;;;;;15.73;71.67;102099.47;5031839;28;20030;-53
2022/07/02 06:25:25;;;;;;;19.23;10.40;;;;;;;15.78;71.08;102098.53;5032037;28;20036;-52
2022/07/02 06:27:51;;;;;;;18.98;10.10;;;;;;;15.86;70.99;102110.97;5032125;28;20029;-54
2022/07/02 06:30:16;;;;;;;16.38;9.90;;;;;;;15.96;69.33;102105.19;5032237;28;20127;-52
2022/07/02 06:32:42;;;;;;;19.95;10.15;;;;;;;16.07;68.75;102114.13;5031745;28;20105;-53
2022/07/02 06:35:08;;;;;;;18.48;9.52;;;;;;;16.17;67.75;102122.28;5031645;28;20032;-54
2022/07/02 06:37:33;;;;;;;16.95;9.65;;;;;;;16.24;67.75;102121.03;5031551;28;20029;-53
2022/07/02 06:39:58;;;;;;;16.48;9.10;;;;;;;16.32;67.35;102118.31;5031573;28;20059;-53
2022/07/02 06:42:26;;;;;;;16.42;8.73;;;;;;;16.44;67.54;102123.34;5031657;28;20025;-53
2022/07/02 06:44:55;;;;;;;16.17;8.80;;;;;;;16.55;65.60;102120.31;5031792;28;20102;-52
2022/07/02 06:47:21;;;;;;;15.70;8.50;;;;;;;16.70;65.27;102119.94;5032028;28;20029;-53
2022/07/02 06:49:47;;;;;;;15.93;9.35;;;;;;;16.83;63.52;102121.84;5031749;28;20021;-53
2022/07/02 06:52:12;;;;;;;13.95;8.20;;;;;;;17.02;61.25;102125.59;5032088;28;20065;-54
2022/07/02 06:54:38;;;;;;;14.70;8.70;;;;;;;17.21;62.63;102115.03;5031020;28;20068;-54
2022/07/02 06:57:05;;;;;;;15.02;8.82;;;;;;;17.43;62.60;102118.94;5031870;28;20025;-54
2022/07/02 06:59:31;;;;;;;14.30;8.52;;;;;;;17.69;60.54;102121.00;5028564;28;20434;-56
2022/07/02 07:01:56;;;;;;;11.25;8.00;;;;;;;17.92;58.96;102107.72;5031533;28;20071;-54
2022/07/02 07:04:21;;;;;;;14.07;8.30;;;;;;;18.05;58.16;102118.00;5031389;28;20026;-53
2022/07/02 07:09:18;;;;;;;14.07;7.72;;;;;;;18.08;56.65;102117.38;5031481;28;20116;-53
2022/07/02 07:11:44;;;;;;;11.13;7.70;;;;;;;18.10;57.28;102111.44;5030808;28;20384;-54
2022/07/02 07:14:10;;;;;;;13.98;7.95;;;;;;;18.15;57.15;102116.84;5031339;28;20163;-54
2022/07/02 07:16:35;;;;;;;11.98;7.68;;;;;;;18.18;57.44;102116.22;5031020;28;20061;-54
2022/07/02 07:19:07;;;;;;;12.05;7.50;;;;;;;18.21;57.00;102109.13;5031081;28;20465;-54
2022/07/02 07:21:38;;;;;;;12.30;7.55;;;;;;;18.21;56.47;102103.53;5031365;28;20112;-54
2022/07/02 07:24:04;;;;;;;10.02;7.25;;;;;;;18.35;57.50;102121.00;5031195;28;20563;-55
2022/07/02 07:26:30;;;;;;;12.05;7.57;;;;;;;18.45;57.29;102117.06;5031205;28;20120;-55
2022/07/02 07:28:55;;;;;;;11.20;7.30;;;;;;;18.42;54.27;102119.69;5030887;28;20160;-54
2022/07/02 07:31:21;;;;;;;12.60;7.90;;;;;;;18.40;55.05;102128.44;5031256;28;20504;-54
2022/07/02 07:33:50;;;;;;;11.45;7.50;;;;;;;18.39;54.00;102110.78;5031148;28;20414;-54
2022/07/02 07:36:17;;;;;;;13.65;7.30;;;;;;;18.38;54.35;102111.13;5031108;28;20168;-54
2022/07/02 07:38:44;;;;;;;10.57;7.72;;;;;;;18.39;54.99;102116.38;5030611;28;20036;-54
2022/07/02 07:41:09;;;;;;;11.02;7.40;;;;;;;18.51;56.07;102115.75;5030957;28;20040;-54
2022/07/02 07:43:35;;;;;;;11.93;7.10;;;;;;;18.54;53.50;102115.06;5012637;28;20021;-55
2022/07/02 07:46:00;;;;;;;11.75;7.40;;;;;;;18.57;51.59;102119.19;5013139;28;20513;-54
2022/07/02 07:48:26;;;;;;;10.18;7.20;;;;;;;18.57;51.26;102133.19;5031034;28;20036;-55
2022/07/02 07:50:51;;;;;;;12.80;7.30;;;;;;;18.61;51.63;102119.38;5031080;28;20116;-54
2022/07/02 07:53:17;;;;;;;11.07;7.30;;;;;;;18.63;51.29;102128.25;5031071;28;20059;-55
2022/07/02 07:55:42;;;;;;;12.73;7.40;;;;;;;18.69;53.10;102112.94;5004420;28;20030;-54
2022/07/02 07:58:07;;;;;;;10.70;7.32;;;;;;;18.87;55.23;102116.53;5020657;28;20029;-55
2022/07/02 08:00:33;;;;;;;13.73;7.82;;;;;;;18.98;53.95;102119.84;5019458;28;20026;-55
2022/07/02 08:02:58;;;;;;;11.45;7.60;;;;;;;19.06;51.52;102113.41;5003775;28;20067;-54
2022/07/02 08:05:25;;;;;;;12.05;7.53;;;;;;;19.17;51.98;102106.28;5019968;28;20041;-58
2022/07/02 08:07:50;;;;;;;11.60;7.72;;;;;;;19.26;53.43;102108.22;5023942;28;20092;-55
2022/07/02 08:10:16;;;;;;;12.90;7.72;;;;;;;19.39;52.94;102106.34;5025373;28;20104;-55
2022/07/02 08:12:41;;;;;;;12.48;7.68;;;;;;;19.43;50.72;102101.69;5023820;28;20034;-55
2022/07/02 08:15:08;;;;;;;11.90;7.50;;;;;;;19.45;49.47;102105.00;5028614;28;20060;-56
2022/07/02 08:17:34;;;;;;;11.23;7.40;;;;;;;19.45;49.02;102102.19;5016782;28;20179;-56
2022/07/02 08:19:59;;;;;;;13.30;7.47;;;;;;;19.48;49.33;102105.16;5034578;28;20092;-55
2022/07/02 08:22:24;;;;;;;12.38;7.63;;;;;;;19.48;49.94;102107.16;5035123;28;20030;-54
2022/07/02 08:24:50;;;;;;;12.35;7.93;;;;;;;19.61;51.50;102100.47;5034495;28;20219;-55
2022/07/02 08:27:16;;;;;;;14.98;7.55;;;;;;;19.73;51.36;102084.88;5034525;28;20033;-54
2022/07/02 08:29:41;;;;;;;14.35;8.05;;;;;;;19.69;49.29;102101.59;5034617;28;20144;-56
2022/07/02 08:32:07;;;;;;;11.27;7.35;;;;;;;19.64;49.78;102099.00;5034448;28;20033;-54
2022/07/02 08:34:33;;;;;;;14.98;7.65;;;;;;;19.69;50.27;102101.59;5034333;28;20029;-54
2022/07/02 08:36:59;;;;;;;12.07;7.13;;;;;;;19.70;49.45;102093.97;5034082;28;20026;-55
2022/07/02 08:39:25;;;;;;;11.13;7.30;;;;;;;19.68;48.93;102087.91;5033873;28;20109;-54
2022/07/02 08:41:52;;;;;;;14.40;7.50;;;;;;;19.77;50.22;102077.44;5033938;28;20333;-56
2022/07/02 08:44:20;;;;;;;13.25;7.28;;;;;;;19.85;50.86;102087.81;5033829;28;20045;-54
2022/07/02 08:46:47;;;;;;;9.55;7.35;;;;;;;19.96;49.79;102088.25;5034201;28;20487;-55
2022/07/02 08:49:17;;;;;;;10.82;7.60;;;;;;;19.97;48.95;102080.66;5033910;28;20143;-53
2022/07/02 08:51:44;;;;;;;13.00;7.60;;;;;;;20.06;49.43;102073.00;5033727;28;20045;-55
2022/07/02 08:54:10;;;;;;;12.13;7.57;;;;;;;20.26;50.26;102091.81;5015925;28;20049;-55
2022/07/02 08:56:35;;;;;;;12.05;7.28;;;;;;;20.34;49.57;102083.69;5033669;28;20523;-55
2022/07/02 08:59:01;;;;;;;12.95;7.40;;;;;;;20.47;50.60;102078.94;5033797;28;20038;-55
2022/07/02 09:01:27;;;;;;;13.25;7.75;;;;;;;20.43;47.87;102078.81;5033690;28;20416;-57
2022/07/02 09:03:53;;;;;;;13.95;8.00;;;;;;;20.37;47.52;102080.16;5034135;28;20037;-55
2022/07/02 09:06:21;;;;;;;12.85;8.30;;;;;;;20.52;49.84;102082.34;5033579;28;20121;-56
2022/07/02 09:08:47;;;;;;;14.77;7.63;;;;;;;20.64;48.75;102078.78;5033600;28;20128;-55
2022/07/02 09:11:12;;;;;;;13.65;7.45;;;;;;;20.70;49.02;102073.75;5033682;28;20041;-55
2022/07/02 09:13:39;;;;;;;11.68;7.22;;;;;;;20.73;47.36;102073.91;5033168;28;20503;-56
2022/07/02 09:16:06;;;;;;;12.43;7.40;;;;;;;20.78;48.97;102074.88;5033458;28;20025;-56
2022/07/02 09:18:31;;;;;;;14.07;7.43;;;;;;;20.93;48.40;102067.75;5032109;28;20133;-57
2022/07/02 09:20:56;;;;;;;11.95;7.40;;;;;;;21.05;49.06;102067.78;5033587;28;20033;-56
2022/07/02 09:23:22;;;;;;;11.13;7.00;;;;;;;21.18;47.58;102054.53;5033215;28;20037;-56
2022/07/02 09:25:49;;;;;;;13.85;7.38;;;;;;;21.19;47.16;102051.41;5033068;28;20033;-58
2022/07/02 09:28:16;;;;;;;11.25;6.97;;;;;;;21.37;48.20;102064.41;5015309;28;20106;-57
2022/07/02 09:30:42;;;;;;;11.95;7.28;;;;;;;21.27;46.30;102052.44;5032961;28;20083;-56
2022/07/02 09:33:31;;;;;;;12.85;7.70;;;;;;;21.30;47.61;102046.13;5033243;28;20376;-57
2022/07/02 09:36:07;;;;;;;12.65;7.25;;;;;;;21.34;46.89;102057.50;5023610;28;20101;-57
2022/07/02 09:38:40;;;;;;;11.90;7.20;;;;;;;21.38;47.20;102057.59;5029494;28;20033;-56
2022/07/02 09:41:11;;;;;;;15.10;7.63;;;;;;;21.40;46.58;102052.44;5031088;28;20112;-56
2022/07/02 09:43:38;;;;;;;12.00;7.40;;;;;;;21.53;48.44;102042.84;5030897;28;20284;-57
2022/07/02 09:46:14;;;;;;;12.07;7.20;;;;;;;21.80;48.27;102041.31;5030731;28;20354;-56
2022/07/02 09:48:39;;;;;;;12.70;7.30;;;;;;;21.88;45.88;102030.25;5030800;28;20461;-55
2022/07/02 09:51:05;;;;;;;11.70;7.10;;;;;;;21.78;44.47;102040.03;5030580;28;20034;-57
2022/07/02 09:53:30;;;;;;;13.88;7.30;;;;;;;21.87;46.78;102035.06;5030679;28;20541;-55
2022/07/02 09:55:56;;;;;;;12.95;8.18;;;;;;;22.08;44.93;102023.63;5030573;28;20079;-56
2022/07/02 09:58:26;;;;;;;16.13;8.05;;;;;;;22.17;45.61;102025.47;5030692;28;20037;-57
2022/07/02 10:00:52;;;;;;;12.35;7.30;;;;;;;22.08;45.00;102031.28;5030669;28;20096;-55
2022/07/02 10:03:18;;;;;;;12.20;7.47;;;;;;;22.37;46.52;102030.09;5027392;28;20476;-54
2022/07/02 10:05:48;;;;;;;10.15;6.75;;;;;;;22.64;43.51;102024.00;5030523;28;20025;-55
2022/07/02 10:08:13;;;;;;;12.63;7.50;;;;;;;22.94;44.23;102035.69;5030549;28;20127;-56
2022/07/02 10:10:39;;;;;;;13.32;7.82;;;;;;;22.97;41.31;102017.22;5030521;28;20425;-54
2022/07/02 10:13:09;;;;;;;10.00;7.53;;;;;;;22.92;41.74;102014.66;5030458;28;20335;-54
2022/07/02 10:15:39;;;;;;;12.05;7.32;;;;;;;22.92;40.95;102004.19;5030199;28;20037;-54
2022/07/02 10:18:05;;;;;;;12.10;7.20;;;;;;;23.02;41.70;102006.47;5029669;28;20543;-54
2022/07/02 10:20:32;;;;;;;13.00;7.30;;;;;;;22.94;42.16;102012.31;5026351;28;20101;-56
2022/07/02 10:23:05;;;;;;;10.60;7.35;;;;;;;22.74;42.69;102004.53;5028702;28;20120;-54
2022/07/02 10:25:32;;;;;;;12.00;7.30;;;;;;;22.68;42.39;102019.28;5030335;28;20461;-55
2022/07/02 10:27:58;;;;;;;12.18;7.20;;;;;;;22.57;42.41;102007.72;5030295;28;20085;-55
2022/07/02 10:30:31;;;;;;;11.82;7.30;;;;;;;22.58;43.67;102000.88;5028985;28;20029;-58
2022/07/02 10:33:15;;;;;;;;;;;;;;;22.92;45.28;102004.19;5030425;28;20104;-57
2022/07/02 10:35:42;;;;;;;12.15;6.85;;;;;;;22.91;43.70;101999.72;5029775;28;19935;-55
2022/07/02 10:38:08;;;;;;;10.68;6.82;;;;;;;22.89;43.24;101994.47;5029824;28;20026;-55
2022/07/02 10:40:45;;;;;;;11.23;7.00;;;;;;;23.05;44.65;101987.97;5030213;28;20119;-55
2022/07/02 10:43:18;;;;;;;11.60;6.88;;;;;;;23.08;43.92;101990.09;5029744;28;20065;-57
2022/07/02 10:45:43;;;;;;;11.35;7.20;;;;;;;23.01;43.21;101995.56;5029848;28;20540;-55
2022/07/02 10:48:10;;;;;;;11.52;7.20;;;;;;;22.94;42.32;101992.56;5029579;28;20112;-55
2022/07/02 10:50:35;;;;;;;11.52;6.90;;;;;;;23.18;41.03;101989.56;5012034;28;20420;-54
2022/07/02 10:53:20;;;;;;;10.70;7.60;;;;;;;23.38;42.03;101991.66;5029679;28;20034;-55
2022/07/02 10:55:51;;;;;;;13.23;7.30;;;;;;;23.28;39.76;101993.00;5029648;28;20326;-55
2022/07/02 10:58:22;;;;;;;12.18;7.00;;;;;;;23.26;39.93;101990.56;5029598;28;20029;-57
2022/07/02 11:00:49;;;;;;;9.85;7.15;;;;;;;23.26;38.95;101986.91;5029682;28;20461;-54
2022/07/02 11:03:26;;;;;;;12.32;7.40;;;;;;;23.34;40.22;101983.06;5029582;28;20033;-56
2022/07/02 11:05:59;;;;;;;11.38;7.03;;;;;;;23.71;40.34;101976.25;5029561;28;20453;-55
2022/07/02 11:08:43;;;;;;;13.68;7.30;;;;;;;24.11;40.34;101978.72;5030340;28;20116;-58
2022/07/02 11:11:09;;;;;;;12.60;7.50;;;;;;;24.12;38.12;101980.38;5012376;28;20468;-55
2022/07/02 11:13:43;;;;;;;10.02;6.80;;;;;;;24.09;38.58;101983.13;5030447;28;20045;-55
2022/07/02 11:16:23;;;;;;;10.65;7.25;;;;;;;23.88;39.05;101970.16;5029070;28;20044;-55
2022/07/02 11:18:50;;;;;;;12.48;7.38;;;;;;;24.01;39.07;101973.69;5028708;28;20134;-55
2022/07/02 11:21:17;;;;;;;10.75;7.15;;;;;;;24.22;37.62;101976.16;5027691;28;20468;-55